createdAt,value
2023-03-05T00:01:16.440Z,5.3
2023-03-05T00:04:16.455Z,5.2
2023-03-05T00:07:16.450Z,5.2
2023-03-05T00:10:16.436Z,5.2
2023-03-05T00:13:16.438Z,5.2
2023-03-05T00:16:16.555Z,5.2
2023-03-05T00:22:16.435Z,5.2
2023-03-05T00:25:16.434Z,5.2
2023-03-05T00:28:16.419Z,5.2
2023-03-05T00:31:16.554Z,5.2
2023-03-05T00:34:16.440Z,5.2
2023-03-05T00:37:16.432Z,5.2
2023-03-05T00:40:16.491Z,5.2
2023-03-05T00:43:16.449Z,5.2
2023-03-05T00:46:16.506Z,5.2
2023-03-05T00:49:16.466Z,5.2
2023-03-05T00:52:16.424Z,5.2
2023-03-05T00:55:16.444Z,5.2
2023-03-05T00:58:16.427Z,5.2
2023-03-05T01:04:16.435Z,5.2
2023-03-05T01:07:16.412Z,5.2
2023-03-05T01:10:16.417Z,5.2
2023-03-05T01:13:16.418Z,5.2
2023-03-05T01:16:16.560Z,5.2
2023-03-05T01:19:16.431Z,5.2
2023-03-05T01:22:16.409Z,5.2
2023-03-05T01:25:16.408Z,5.1
2023-03-05T01:28:16.408Z,5.1
2023-03-05T01:31:16.435Z,5.1
2023-03-05T01:34:16.428Z,5.1
2023-03-05T01:37:16.404Z,5.1
2023-03-05T01:40:16.415Z,5.1
2023-03-05T01:43:16.402Z,5.1
2023-03-05T01:46:16.506Z,5.1
2023-03-05T01:49:16.420Z,5.1
2023-03-05T01:52:16.398Z,5.1
2023-03-05T01:55:16.390Z,5.1
2023-03-05T01:58:16.392Z,5.1
2023-03-05T02:01:16.435Z,5.1
2023-03-05T02:04:16.413Z,5.1
2023-03-05T02:07:16.394Z,5.1
2023-03-05T02:10:16.389Z,5.1
2023-03-05T02:13:16.398Z,5.1
2023-03-05T02:19:16.415Z,5.1
2023-03-05T02:22:16.396Z,5
2023-03-05T02:25:16.399Z,5
2023-03-05T02:28:16.468Z,5
2023-03-05T02:31:16.547Z,5
2023-03-05T02:34:16.404Z,5
2023-03-05T02:37:16.391Z,5
2023-03-05T02:40:16.384Z,5
2023-03-05T02:43:16.395Z,5
2023-03-05T02:49:16.372Z,5
2023-03-05T02:52:16.388Z,5
2023-03-05T02:55:16.378Z,5
2023-03-05T02:58:16.381Z,5
2023-03-05T03:01:16.410Z,5
2023-03-05T03:04:16.395Z,5
2023-03-05T03:07:16.386Z,5
2023-03-05T03:10:16.383Z,5
2023-03-05T03:13:16.357Z,5
2023-03-05T03:16:16.361Z,5
2023-03-05T03:19:16.408Z,5
2023-03-05T03:22:16.362Z,5
2023-03-05T03:25:16.448Z,5
2023-03-05T03:28:16.367Z,5
2023-03-05T03:34:16.360Z,5
2023-03-05T03:37:16.348Z,5
2023-03-05T03:40:16.351Z,5
2023-03-05T03:43:16.354Z,5
2023-03-05T03:46:16.422Z,5
2023-03-05T03:49:16.351Z,5
2023-03-05T03:52:16.344Z,5
2023-03-05T03:55:16.344Z,5
2023-03-05T03:58:16.354Z,5
2023-03-05T04:01:16.342Z,4.9
2023-03-05T04:04:16.409Z,4.9
2023-03-05T04:07:16.343Z,4.9
2023-03-05T04:10:16.336Z,4.9
2023-03-05T04:13:16.343Z,4.9
2023-03-05T04:16:16.417Z,4.9
2023-03-05T04:19:16.347Z,4.9
2023-03-05T04:22:16.352Z,4.9
2023-03-05T04:25:16.327Z,4.9
2023-03-05T04:28:16.323Z,4.9
2023-03-05T04:31:16.349Z,4.9
2023-03-05T04:34:16.334Z,4.9
2023-03-05T04:37:16.314Z,4.8
2023-03-05T04:43:16.312Z,4.8
2023-03-05T04:46:16.328Z,4.8
2023-03-05T04:49:16.320Z,4.8
2023-03-05T04:52:16.308Z,4.8
2023-03-05T04:55:16.318Z,4.8
2023-03-05T04:58:16.302Z,4.8
2023-03-05T05:01:16.299Z,4.8
2023-03-05T05:04:16.331Z,4.7
2023-03-05T05:07:16.303Z,4.7
2023-03-05T05:10:16.323Z,4.7
2023-03-05T05:16:16.394Z,4.7
2023-03-05T05:19:16.431Z,4.7
2023-03-05T05:22:16.287Z,4.7
2023-03-05T05:25:16.303Z,4.7
2023-03-05T05:28:16.295Z,4.7
2023-03-05T05:31:16.343Z,4.7
2023-03-05T05:34:16.307Z,4.7
2023-03-05T05:37:16.294Z,4.6
2023-03-05T05:40:16.301Z,4.6
2023-03-05T05:43:16.318Z,4.6
2023-03-05T05:46:16.438Z,4.6
2023-03-05T05:49:16.308Z,4.6
2023-03-05T05:52:16.300Z,4.6
2023-03-05T05:55:16.297Z,4.6
2023-03-05T05:58:16.328Z,4.6
2023-03-05T06:01:16.283Z,4.6
2023-03-05T06:04:16.297Z,4.6
2023-03-05T06:07:16.284Z,4.6
2023-03-05T06:10:16.279Z,4.6
2023-03-05T06:13:16.277Z,4.5
2023-03-05T06:16:16.335Z,4.5
2023-03-05T06:19:16.310Z,4.5
2023-03-05T06:22:16.269Z,4.5
2023-03-05T06:25:16.295Z,4.5
2023-03-05T06:31:16.322Z,4.5
2023-03-05T06:34:16.274Z,4.5
2023-03-05T06:37:16.273Z,4.5
2023-03-05T06:40:16.266Z,4.5
2023-03-05T06:43:16.266Z,4.6
2023-03-05T06:46:16.389Z,4.6
2023-03-05T06:49:16.271Z,4.6
2023-03-05T06:52:16.311Z,4.6
2023-03-05T06:55:16.257Z,4.6
2023-03-05T06:58:16.271Z,4.6
2023-03-05T07:01:16.288Z,4.6
2023-03-05T07:04:16.283Z,4.6
2023-03-05T07:07:16.256Z,4.6
2023-03-05T07:10:16.266Z,4.6
2023-03-05T07:13:16.248Z,4.6
2023-03-05T07:16:16.294Z,4.6
2023-03-05T07:19:16.279Z,4.6
2023-03-05T07:22:16.246Z,4.6
2023-03-05T07:25:16.245Z,4.6
2023-03-05T07:28:16.249Z,4.6
2023-03-05T07:31:16.332Z,4.6
2023-03-05T07:34:16.263Z,4.6
2023-03-05T07:37:16.240Z,4.6
2023-03-05T07:40:16.249Z,4.6
2023-03-05T07:43:16.255Z,4.6
2023-03-05T07:46:16.423Z,4.7
2023-03-05T07:49:16.255Z,4.7
2023-03-05T07:52:16.283Z,4.7
2023-03-05T07:55:16.234Z,4.7
2023-03-05T07:58:16.240Z,4.7
2023-03-05T08:01:16.230Z,4.7
2023-03-05T08:04:16.330Z,4.7
2023-03-05T08:07:16.316Z,4.7
2023-03-05T08:10:16.253Z,4.7
2023-03-05T08:13:16.236Z,4.7
2023-03-05T08:16:16.333Z,4.7
2023-03-05T08:19:16.256Z,4.7
2023-03-05T08:22:16.237Z,4.7
2023-03-05T08:25:16.228Z,4.8
2023-03-05T08:28:16.237Z,4.8
2023-03-05T08:31:16.353Z,4.8
2023-03-05T08:34:16.245Z,4.8
2023-03-05T08:37:16.237Z,4.8
2023-03-05T08:40:16.235Z,4.8
2023-03-05T08:43:16.236Z,4.8
2023-03-05T08:46:16.257Z,4.8
2023-03-05T08:49:16.231Z,4.8
2023-03-05T08:52:16.223Z,4.9
2023-03-05T08:55:16.220Z,4.9
2023-03-05T08:58:16.236Z,4.9
2023-03-05T09:01:16.223Z,4.9
2023-03-05T09:04:16.302Z,4.9
2023-03-05T09:07:16.240Z,4.9
2023-03-05T09:10:16.230Z,5
2023-03-05T09:13:16.249Z,5
2023-03-05T09:16:16.297Z,5
2023-03-05T09:19:16.257Z,5
2023-03-05T09:22:16.247Z,5
2023-03-05T09:25:16.248Z,5
2023-03-05T09:28:16.234Z,5
2023-03-05T09:31:16.332Z,5
2023-03-05T09:34:16.252Z,5
2023-03-05T09:37:16.230Z,5.1
2023-03-05T09:40:16.226Z,5.1
2023-03-05T09:43:16.238Z,5.1
2023-03-05T09:46:16.263Z,5.1
2023-03-05T09:49:16.263Z,5.1
2023-03-05T09:52:16.215Z,5.1
2023-03-05T09:55:16.224Z,5.1
2023-03-05T10:01:16.215Z,5.2
2023-03-05T10:04:16.255Z,5.2
2023-03-05T10:07:16.214Z,5.2
2023-03-05T10:10:16.214Z,5.3
2023-03-05T10:13:16.223Z,5.3
2023-03-05T10:16:16.231Z,5.3
2023-03-05T10:19:16.227Z,5.3
2023-03-05T10:22:16.216Z,5.4
2023-03-05T10:25:16.203Z,5.5
2023-03-05T10:28:16.215Z,5.5
2023-03-05T10:31:16.247Z,5.6
2023-03-05T10:34:16.215Z,5.6
2023-03-05T10:37:16.219Z,5.7
2023-03-05T10:40:16.221Z,5.7
2023-03-05T10:43:16.226Z,5.7
2023-03-05T10:46:16.252Z,5.7
2023-03-05T10:49:16.239Z,5.7
2023-03-05T10:55:16.217Z,5.6
2023-03-05T10:58:16.224Z,5.6
2023-03-05T11:01:16.207Z,5.6
2023-03-05T11:04:16.211Z,5.6
2023-03-05T11:07:16.250Z,5.6
2023-03-05T11:10:16.209Z,5.6
2023-03-05T11:13:16.199Z,5.6
2023-03-05T11:16:16.244Z,5.6
2023-03-05T11:19:16.457Z,5.6
2023-03-05T11:22:16.258Z,5.5
2023-03-05T11:28:24.093Z,5.5
2023-03-05T11:31:16.328Z,5.5
2023-03-05T11:34:16.275Z,5.5
2023-03-05T11:37:16.242Z,5.4
2023-03-05T11:40:16.285Z,5.4
2023-03-05T11:43:16.273Z,5.4
2023-03-05T11:49:16.443Z,5.4
2023-03-05T11:52:16.312Z,5.4
2023-03-05T11:55:16.262Z,5.4
2023-03-05T11:58:16.264Z,5.4
2023-03-05T12:01:16.276Z,5.4
2023-03-05T12:04:16.452Z,5.4
2023-03-05T12:07:16.291Z,5.5
2023-03-05T12:10:16.424Z,5.5
2023-03-05T12:13:16.265Z,5.5
2023-03-05T12:16:16.363Z,5.6
2023-03-05T12:19:18.142Z,5.6
2023-03-05T12:22:16.264Z,5.7
2023-03-05T12:25:16.271Z,5.7
2023-03-05T12:28:16.266Z,5.8
2023-03-05T12:34:16.284Z,5.9
2023-03-05T12:37:16.273Z,5.9
2023-03-05T12:40:16.270Z,5.9
2023-03-05T12:43:16.561Z,6
2023-03-05T12:46:16.558Z,6
2023-03-05T12:49:16.278Z,6
2023-03-05T12:52:16.300Z,6
2023-03-05T12:55:16.283Z,6
2023-03-05T12:58:16.301Z,6
2023-03-05T13:01:16.363Z,6.1
2023-03-05T13:04:16.279Z,6.1
2023-03-05T13:07:16.275Z,6.1
2023-03-05T13:10:16.292Z,6.1
2023-03-05T13:13:16.278Z,6.2
2023-03-05T13:19:16.270Z,6.2
2023-03-05T13:22:16.262Z,6.2
2023-03-05T13:25:16.255Z,6.2
2023-03-05T13:28:16.263Z,6.2
2023-03-05T13:31:16.281Z,6.2
2023-03-05T13:34:16.422Z,6.2
2023-03-05T13:37:16.326Z,6.2
2023-03-05T13:40:16.831Z,6.2
2023-03-05T13:43:16.930Z,6.2
2023-03-05T13:46:16.364Z,6.1
2023-03-05T13:49:16.911Z,6.1
2023-03-05T13:52:16.580Z,6.1
2023-03-05T13:58:16.674Z,6.1
2023-03-05T14:01:17.129Z,6.1
2023-03-05T14:04:16.615Z,6.1
2023-03-05T14:07:16.802Z,6.1
2023-03-05T14:10:16.879Z,6.1
2023-03-05T14:13:16.945Z,6.1
2023-03-05T14:16:16.851Z,6.1
2023-03-05T14:19:16.620Z,6.1
2023-03-05T14:22:16.372Z,6.1
2023-03-05T14:28:16.373Z,6.1
2023-03-05T14:31:16.595Z,6.1
2023-03-05T14:34:16.356Z,6.1
2023-03-05T14:37:16.356Z,6.1
2023-03-05T14:40:16.349Z,6
2023-03-05T14:43:16.357Z,6
2023-03-05T14:46:16.415Z,6
2023-03-05T14:52:16.347Z,6
2023-03-05T14:55:16.360Z,6
2023-03-05T14:58:16.354Z,6
2023-03-05T15:01:16.369Z,6
2023-03-05T15:04:16.352Z,5.9
2023-03-05T15:07:16.342Z,5.9
2023-03-05T15:13:16.344Z,5.9
2023-03-05T15:16:16.455Z,5.9
2023-03-05T15:19:16.328Z,5.9
2023-03-05T15:22:16.333Z,5.9
2023-03-05T15:25:16.339Z,5.9
2023-03-05T15:28:16.340Z,5.9
2023-03-05T15:31:16.698Z,5.9
2023-03-05T15:34:16.337Z,5.9
2023-03-05T15:37:16.320Z,5.8
2023-03-05T15:40:16.325Z,5.8
2023-03-05T15:43:16.321Z,5.8
2023-03-05T15:46:16.353Z,5.8
2023-03-05T15:49:16.327Z,5.7
2023-03-05T15:52:16.322Z,5.7
2023-03-05T15:55:16.318Z,5.7
2023-03-05T15:58:16.315Z,5.7
2023-03-05T16:01:16.360Z,5.7
2023-03-05T16:04:16.314Z,5.7
2023-03-05T16:07:16.318Z,5.7
2023-03-05T16:10:16.316Z,5.7
2023-03-05T16:13:16.331Z,5.7
2023-03-05T16:16:16.335Z,5.6
2023-03-05T16:19:16.380Z,5.6
2023-03-05T16:22:16.339Z,5.6
2023-03-05T16:25:16.311Z,5.6
2023-03-05T16:28:16.315Z,5.6
2023-03-05T16:31:16.331Z,5.6
2023-03-05T16:40:16.315Z,5.6
2023-03-05T16:43:16.313Z,5.6
2023-03-05T16:46:16.370Z,5.5
2023-03-05T16:49:16.304Z,5.5
2023-03-05T16:52:18.936Z,5.5
2023-03-05T16:55:16.311Z,5.5
2023-03-05T16:58:16.430Z,5.5
2023-03-05T17:01:16.329Z,5.5
2023-03-05T17:04:16.333Z,5.5
2023-03-05T17:07:16.286Z,5.5
2023-03-05T17:10:16.293Z,5.4
2023-03-05T17:13:16.317Z,5.4
2023-03-05T17:16:16.332Z,5.4
2023-03-05T17:19:16.279Z,5.4
2023-03-05T17:22:16.281Z,5.4
2023-03-05T17:25:16.281Z,5.4
2023-03-05T17:28:16.287Z,5.4
2023-03-05T17:31:16.334Z,5.4
2023-03-05T17:34:16.775Z,5.3
2023-03-05T17:37:16.300Z,5.3
2023-03-05T17:40:16.276Z,5.3
2023-03-05T17:43:16.284Z,5.3
2023-03-05T17:46:16.273Z,5.3
2023-03-05T17:49:16.265Z,5.3
2023-03-05T17:52:16.266Z,5.3
2023-03-05T17:55:16.267Z,5.3
2023-03-05T17:58:16.267Z,5.3
2023-03-05T18:01:16.294Z,5.3
2023-03-05T18:04:16.309Z,5.3
2023-03-05T18:07:16.265Z,5.3
2023-03-05T18:10:16.266Z,5.3
2023-03-05T18:13:16.268Z,5.3
2023-03-05T18:16:16.283Z,5.2
2023-03-05T18:19:16.262Z,5.2
2023-03-05T18:22:16.261Z,5.2
2023-03-05T18:25:16.261Z,5.2
2023-03-05T18:28:16.270Z,5.2
2023-03-05T18:31:16.257Z,5.2
2023-03-05T18:34:16.256Z,5.2
2023-03-05T18:37:16.273Z,5.2
2023-03-05T18:40:18.767Z,5.2
2023-03-05T18:43:16.252Z,5.2
2023-03-05T18:46:16.278Z,5.2
2023-03-05T18:49:16.248Z,5.2
2023-03-05T18:52:16.248Z,5.2
2023-03-05T18:55:16.249Z,5.1
2023-03-05T18:58:16.248Z,5.1
2023-03-05T19:01:16.276Z,5.1
2023-03-05T19:04:16.286Z,5.1
2023-03-05T19:07:16.274Z,5.1
2023-03-05T19:13:16.240Z,5.1
2023-03-05T19:16:16.248Z,5.1
2023-03-05T19:19:16.267Z,5.1
2023-03-05T19:22:16.246Z,5.1
2023-03-05T19:25:16.238Z,5.1
2023-03-05T19:28:16.233Z,5.1
2023-03-05T19:31:16.331Z,5.1
2023-03-05T19:34:16.248Z,5.1
2023-03-05T19:37:16.244Z,5
2023-03-05T19:40:16.278Z,5
2023-03-05T19:43:16.238Z,5
2023-03-05T19:46:16.276Z,5
2023-03-05T19:49:16.229Z,5
2023-03-05T19:52:16.232Z,5
2023-03-05T19:55:16.234Z,5
2023-03-05T19:58:16.227Z,5
2023-03-05T20:01:16.261Z,5
2023-03-05T20:04:16.245Z,5
2023-03-05T20:07:16.231Z,5
2023-03-05T20:10:16.243Z,5
2023-03-05T20:13:16.246Z,5
2023-03-05T20:16:16.250Z,5
2023-03-05T20:19:16.290Z,5
2023-03-05T20:22:16.246Z,5
2023-03-05T20:25:16.239Z,5
2023-03-05T20:28:16.239Z,5
2023-03-05T20:31:16.281Z,5
2023-03-05T20:34:16.282Z,5
2023-03-05T20:40:16.234Z,4.9
2023-03-05T20:43:16.258Z,4.9
2023-03-05T20:46:16.255Z,4.9
2023-03-05T20:49:16.234Z,4.9
2023-03-05T20:52:16.226Z,4.9
2023-03-05T20:55:16.228Z,4.9
2023-03-05T20:58:16.232Z,4.9
2023-03-05T21:01:16.231Z,4.9
2023-03-05T21:04:16.261Z,4.9
2023-03-05T21:07:16.260Z,4.9
2023-03-05T21:10:16.264Z,4.9
2023-03-05T21:13:16.270Z,4.9
2023-03-05T21:16:16.368Z,4.9
2023-03-05T21:19:16.264Z,4.9
2023-03-05T21:22:16.254Z,4.9
2023-03-05T21:25:16.262Z,4.9
2023-03-05T21:28:16.254Z,4.9
2023-03-05T21:31:16.305Z,4.9
2023-03-05T21:34:16.250Z,4.9
2023-03-05T21:37:16.243Z,4.9
2023-03-05T21:40:16.248Z,4.8
2023-03-05T21:43:16.244Z,4.8
2023-03-05T21:46:16.288Z,4.8
2023-03-05T21:49:16.243Z,4.8
2023-03-05T21:52:16.238Z,4.8
2023-03-05T21:55:16.245Z,4.8
2023-03-05T21:58:16.249Z,4.8
2023-03-05T22:01:16.313Z,4.8
2023-03-05T22:04:16.239Z,4.8
2023-03-05T22:07:16.232Z,4.8
2023-03-05T22:10:16.231Z,4.8
2023-03-05T22:13:16.223Z,4.8
2023-03-05T22:16:16.246Z,4.8
2023-03-05T22:19:16.224Z,4.8
2023-03-05T22:22:16.219Z,4.8
2023-03-05T22:25:16.229Z,4.8
2023-03-05T22:28:16.228Z,4.7
2023-03-05T22:31:16.225Z,4.7
2023-03-05T22:34:16.227Z,4.7
2023-03-05T22:37:16.222Z,4.7
2023-03-05T22:40:16.223Z,4.7
2023-03-05T22:43:16.228Z,4.7
2023-03-05T22:46:16.266Z,4.7
2023-03-05T22:49:16.208Z,4.7
2023-03-05T22:52:16.212Z,4.7
2023-03-05T22:55:16.210Z,4.7
2023-03-05T22:58:16.206Z,4.7
2023-03-05T23:01:16.220Z,4.7
2023-03-05T23:04:16.282Z,4.7
2023-03-05T23:07:16.211Z,4.7
2023-03-05T23:10:16.216Z,4.6
2023-03-05T23:13:16.211Z,4.6
2023-03-05T23:16:16.275Z,4.6
2023-03-05T23:19:16.219Z,4.6
2023-03-05T23:22:16.213Z,4.6
2023-03-05T23:25:16.236Z,4.6
2023-03-05T23:28:16.232Z,4.6
2023-03-05T23:31:16.260Z,4.6
2023-03-05T23:34:16.258Z,4.6
2023-03-05T23:37:16.295Z,4.6
2023-03-05T23:40:16.239Z,4.6
2023-03-05T23:43:16.226Z,4.6
2023-03-05T23:49:16.313Z,4.6
2023-03-05T23:52:16.268Z,4.6
2023-03-05T23:55:16.268Z,4.5
2023-03-05T23:58:16.311Z,4.5
